Time;durP1;ratioP1;P1;durP2;ratioP2;P2;SDS_P1;SDS_P2;PMS_P1;PMS_P2;Temp;Humidity;BMP_temperature;BMP_pressure;BME280_temperature;BME280_humidity;BME280_pressure;Samples;Min_cycle;Max_cycle;Signal;HPM_P1;HPM_P2
2021/10/06 00:01:09;;;;;;;7.60;1.73;;;11.80;93.00;;;;;;5112701;28;20032;-77
2021/10/06 00:03:38;;;;;;;9.25;2.03;;;11.80;93.00;;;;;;5113255;28;20032;-77
2021/10/06 00:06:04;;;;;;;;;;;11.80;93.00;;;;;;5114528;28;20020;-77
2021/10/06 00:08:30;;;;;;;11.18;1.75;;;11.70;92.90;;;;;;5114269;28;19904;-77
2021/10/06 00:10:56;;;;;;;10.25;1.98;;;11.70;92.90;;;;;;5113968;28;20020;-77
2021/10/06 00:13:23;;;;;;;8.52;1.90;;;11.70;93.00;;;;;;5112627;28;20483;-77
2021/10/06 00:15:49;;;;;;;7.00;1.83;;;11.70;93.10;;;;;;5112082;28;20059;-77
2021/10/06 00:18:16;;;;;;;10.43;1.75;;;11.70;93.10;;;;;;5112535;28;20028;-77
2021/10/06 00:20:43;;;;;;;5.82;1.92;;;11.70;93.10;;;;;;5112077;27;20023;-77
2021/10/06 00:23:09;;;;;;;6.93;1.90;;;11.60;93.20;;;;;;5095804;28;20039;-77
2021/10/06 00:25:36;;;;;;;9.43;1.60;;;11.60;93.20;;;;;;5112915;28;20023;-77
2021/10/06 00:28:06;;;;;;;8.35;1.88;;;11.60;93.20;;;;;;5112973;28;20122;-77
2021/10/06 00:30:32;;;;;;;9.77;1.58;;;11.60;93.20;;;;;;5114571;28;20016;-77
2021/10/06 00:32:59;;;;;;;12.65;1.98;;;11.60;93.20;;;;;;5113441;28;20027;-77
2021/10/06 00:35:27;;;;;;;7.45;1.95;;;11.60;93.20;;;;;;5095835;28;20548;-77
2021/10/06 00:37:54;;;;;;;9.07;1.88;;;11.60;93.30;;;;;;5112528;28;20036;-77
2021/10/06 00:40:20;;;;;;;10.10;2.10;;;11.60;93.30;;;;;;5111800;28;20114;-77
2021/10/06 00:42:49;;;;;;;9.32;1.92;;;11.60;93.20;;;;;;5129232;27;20503;-77
2021/10/06 00:45:15;;;;;;;9.20;1.98;;;11.60;93.20;;;;;;5094395;28;20062;-77
2021/10/06 00:47:41;;;;;;;7.40;2.03;;;11.60;93.30;;;;;;5111553;28;20035;-77
2021/10/06 00:50:08;;;;;;;14.27;2.28;;;11.60;93.30;;;;;;5128759;27;20027;-74
2021/10/06 00:52:37;;;;;;;6.53;1.88;;;11.50;93.30;;;;;;5111406;28;20391;-75
2021/10/06 00:55:03;;;;;;;10.18;2.08;;;11.50;93.30;;;;;;5112504;28;20031;-74
2021/10/06 00:57:29;;;;;;;9.38;1.80;;;11.50;93.20;;;;;;5113414;28;20046;-77
2021/10/06 00:59:56;;;;;;;8.80;2.03;;;11.50;93.30;;;;;;5111508;28;20028;-77
2021/10/06 01:02:25;;;;;;;12.50;2.08;;;11.50;93.30;;;;;;5094944;28;20379;-76
2021/10/06 01:04:51;;;;;;;8.50;1.88;;;11.50;93.40;;;;;;5094672;28;20506;-76
2021/10/06 01:07:20;;;;;;;10.15;2.00;;;11.50;93.70;;;;;;5111726;28;20040;-77
2021/10/06 01:09:47;;;;;;;10.32;1.90;;;11.50;93.60;;;;;;5129731;27;20023;-77
2021/10/06 01:12:13;;;;;;;8.70;2.20;;;11.50;93.50;;;;;;5113581;28;20028;-77
2021/10/06 01:14:39;;;;;;;13.15;2.00;;;11.50;93.50;;;;;;5113245;28;20047;-77
2021/10/06 01:17:06;;;;;;;6.13;1.67;;;11.50;93.50;;;;;;5112199;28;20022;-76
2021/10/06 01:19:35;;;;;;;13.85;2.13;;;11.50;93.40;;;;;;5112578;28;20028;-77
2021/10/06 01:22:01;;;;;;;10.55;1.80;;;11.50;93.40;;;;;;5112305;28;20107;-77
2021/10/06 01:24:30;;;;;;;12.98;2.38;;;11.50;93.40;;;;;;5129498;27;20118;-77
2021/10/06 01:26:57;;;;;;;17.58;2.20;;;11.50;93.40;;;;;;5112522;28;20161;-77
2021/10/06 01:29:23;;;;;;;10.50;2.30;;;11.50;93.40;;;;;;5056763;28;20057;-77
2021/10/06 01:31:49;;;;;;;10.35;1.88;;;11.40;93.70;;;;;;5031758;28;20028;-77
2021/10/06 01:34:25;;;;;;;12.90;2.08;;;11.40;93.40;;;;;;5049929;28;20045;-76
2021/10/06 01:36:53;;;;;;;13.60;2.20;;;11.40;93.50;;;;;;5015928;28;20029;-77
2021/10/06 01:39:20;;;;;;;13.02;2.40;;;11.40;93.40;;;;;;5031852;28;20032;-77
2021/10/06 01:41:47;;;;;;;14.93;2.67;;;11.40;93.50;;;;;;5048693;28;20052;-77
2021/10/06 01:44:15;;;;;;;11.95;2.47;;;11.40;93.50;;;;;;5049347;28;20063;-77
2021/10/06 01:46:41;;;;;;;14.32;2.28;;;11.40;93.50;;;;;;5014480;28;20430;-77
2021/10/06 01:49:07;;;;;;;10.48;2.10;;;11.40;93.40;;;;;;5048518;28;20129;-77
2021/10/06 01:51:33;;;;;;;13.02;2.25;;;11.40;93.50;;;;;;5048241;28;20061;-77
2021/10/06 01:54:00;;;;;;;12.52;2.20;;;11.30;93.40;;;;;;5030379;28;20033;-77
2021/10/06 01:56:27;;;;;;;11.63;2.05;;;11.30;93.50;;;;;;5048579;28;20053;-77
2021/10/06 01:58:52;;;;;;;11.07;2.45;;;11.30;93.60;;;;;;5030445;28;20120;-77
2021/10/06 02:01:18;;;;;;;11.48;2.33;;;11.30;93.60;;;;;;5047779;28;20103;-77
2021/10/06 02:03:43;;;;;;;13.93;2.28;;;11.30;93.50;;;;;;5013358;28;20044;-77
2021/10/06 02:06:09;;;;;;;12.82;2.17;;;11.30;93.50;;;;;;5048149;28;20053;-77
2021/10/06 02:08:35;;;;;;;11.55;2.70;;;11.30;93.80;;;;;;5047728;28;20025;-77
2021/10/06 02:11:01;;;;;;;13.80;2.42;;;11.30;93.50;;;;;;5048486;28;20033;-77
2021/10/06 02:13:29;;;;;;;13.68;2.45;;;11.30;93.60;;;;;;5014107;28;20025;-77
2021/10/06 02:15:55;;;;;;;15.20;2.67;;;11.30;93.60;;;;;;5030182;28;20029;-77
2021/10/06 02:18:21;;;;;;;17.60;2.60;;;11.30;93.60;;;;;;5031194;28;20033;-77
2021/10/06 02:20:47;;;;;;;10.00;1.95;;;11.20;93.60;;;;;;5048532;28;20032;-77
2021/10/06 02:23:14;;;;;;;13.38;2.50;;;11.20;93.60;;;;;;5047358;28;20033;-77
2021/10/06 02:25:40;;;;;;;10.82;1.95;;;11.30;93.70;;;;;;5032208;28;20060;-77
2021/10/06 02:28:07;;;;;;;16.63;2.50;;;11.30;93.70;;;;;;5017894;28;20152;-76
2021/10/06 02:30:35;;;;;;;10.68;2.10;;;11.30;93.80;;;;;;5034759;28;20028;-76
2021/10/06 02:33:02;;;;;;;11.02;2.10;;;11.30;93.80;;;;;;5034817;28;20472;-76
2021/10/06 02:35:28;;;;;;;10.98;2.67;;;11.30;93.80;;;;;;5033789;28;20465;-76
2021/10/06 02:37:57;;;;;;;9.48;2.00;;;11.40;93.90;;;;;;5034486;28;20065;-76
2021/10/06 02:40:26;;;;;;;10.98;1.83;;;11.40;93.90;;;;;;5052293;28;20025;-76
2021/10/06 02:42:53;;;;;;;15.75;2.58;;;11.40;93.90;;;;;;5034731;28;20120;-76
2021/10/06 02:45:20;;;;;;;11.05;2.15;;;11.40;93.80;;;;;;5052529;28;20430;-76
2021/10/06 02:47:46;;;;;;;11.95;2.25;;;11.50;93.90;;;;;;5034515;28;20120;-77
2021/10/06 02:50:14;;;;;;;16.38;2.40;;;11.50;93.90;;;;;;5051772;28;20021;-77
2021/10/06 02:52:40;;;;;;;13.52;2.15;;;11.50;93.80;;;;;;5033565;28;20036;-77
2021/10/06 02:55:07;;;;;;;10.35;2.25;;;11.50;93.70;;;;;;5033220;28;20501;-77
2021/10/06 02:57:35;;;;;;;15.73;2.10;;;11.50;93.70;;;;;;5033418;28;20514;-77
2021/10/06 03:00:01;;;;;;;11.68;2.33;;;11.50;93.60;;;;;;5033256;28;20044;-77
2021/10/06 03:02:30;;;;;;;9.52;1.95;;;11.50;93.50;;;;;;5033510;28;20032;-77
2021/10/06 03:04:55;;;;;;;14.48;2.13;;;11.60;93.50;;;;;;5033402;28;20120;-77
2021/10/06 03:07:21;;;;;;;9.73;1.83;;;11.60;93.50;;;;;;5033277;28;20159;-77
2021/10/06 03:09:48;;;;;;;13.88;2.10;;;11.60;93.50;;;;;;5033241;28;20077;-77
2021/10/06 03:12:17;;;;;;;11.00;1.80;;;11.60;93.50;;;;;;5033121;28;20021;-77
2021/10/06 03:14:43;;;;;;;12.00;1.85;;;11.70;93.50;;;;;;5049799;28;20033;-77
2021/10/06 03:17:08;;;;;;;20.15;2.70;;;11.60;93.40;;;;;;5049974;28;20718;-77
2021/10/06 03:19:37;;;;;;;10.00;2.00;;;11.60;93.40;;;;;;5032904;28;20041;-77
2021/10/06 03:22:04;;;;;;;7.68;1.67;;;11.70;93.40;;;;;;5051278;28;20083;-77
2021/10/06 03:24:30;;;;;;;10.70;2.05;;;11.70;93.40;;;;;;5033054;28;20033;-77
2021/10/06 03:26:56;;;;;;;11.65;2.08;;;11.60;93.30;;;;;;5050820;28;20040;-77
2021/10/06 03:29:23;;;;;;;16.02;2.35;;;11.60;93.10;;;;;;5050651;28;20041;-77
2021/10/06 03:31:49;;;;;;;12.05;1.90;;;11.60;93.10;;;;;;5016280;28;20025;-77
2021/10/06 03:34:16;;;;;;;10.48;2.28;;;11.70;93.10;;;;;;5032868;28;20142;-77
2021/10/06 03:36:42;;;;;;;6.75;1.85;;;11.60;93.10;;;;;;5049346;27;20033;-77
2021/10/06 03:39:09;;;;;;;18.60;2.13;;;11.60;93.20;;;;;;5032585;28;20560;-77
2021/10/06 03:41:35;;;;;;;12.45;1.92;;;11.60;93.50;;;;;;5032895;28;20495;-77
2021/10/06 03:44:02;;;;;;;11.32;1.73;;;11.60;93.00;;;;;;5032737;28;20174;-77
2021/10/06 03:46:28;;;;;;;16.75;2.50;;;11.60;93.00;;;;;;5032999;28;20056;-77
2021/10/06 03:48:54;;;;;;;9.43;1.92;;;11.60;93.00;;;;;;5032421;28;20029;-77
2021/10/06 03:51:21;;;;;;;11.07;1.83;;;11.60;92.90;;;;;;5016212;28;20115;-77
2021/10/06 03:53:48;;;;;;;9.82;1.88;;;11.60;92.90;;;;;;5016216;28;20022;-77
2021/10/06 03:56:14;;;;;;;10.48;2.00;;;11.60;92.90;;;;;;5016053;28;20043;-77
2021/10/06 03:58:41;;;;;;;9.25;1.90;;;11.60;92.80;;;;;;5016158;28;20049;-77
2021/10/06 04:01:07;;;;;;;11.70;1.67;;;11.60;92.80;;;;;;5016147;28;20029;-78
2021/10/06 04:03:32;;;;;;;8.82;1.77;;;11.60;92.80;;;;;;5050328;28;20021;-77
2021/10/06 04:05:58;;;;;;;12.35;2.10;;;11.60;92.80;;;;;;5032628;28;20115;-77
2021/10/06 04:08:23;;;;;;;10.70;1.85;;;11.60;92.80;;;;;;5032355;28;20064;-77
2021/10/06 04:10:49;;;;;;;10.90;1.77;;;11.70;92.80;;;;;;5049944;28;20052;-77
2021/10/06 04:13:15;;;;;;;8.60;1.85;;;11.60;92.60;;;;;;5032337;28;20568;-77
2021/10/06 04:15:40;;;;;;;10.30;1.73;;;11.60;92.60;;;;;;5032120;28;20031;-77
2021/10/06 04:18:06;;;;;;;11.80;1.95;;;11.60;92.60;;;;;;5015676;28;20031;-77
2021/10/06 04:20:33;;;;;;;9.38;1.60;;;11.60;92.70;;;;;;5050230;28;20438;-77
2021/10/06 04:22:58;;;;;;;13.82;1.95;;;11.70;92.50;;;;;;5049864;28;20454;-77
2021/10/06 04:25:24;;;;;;;8.48;1.50;;;11.70;92.50;;;;;;5049812;28;20068;-77
2021/10/06 04:27:53;;;;;;;13.63;1.83;;;11.70;92.50;;;;;;5048570;28;20060;-77
2021/10/06 04:30:19;;;;;;;9.30;1.40;;;11.70;92.60;;;;;;5113424;28;20072;-77
2021/10/06 04:32:45;;;;;;;8.88;2.25;;;11.70;92.60;;;;;;5113263;28;20024;-77
2021/10/06 04:35:11;;;;;;;7.65;1.85;;;11.70;92.70;;;;;;5113195;28;20027;-77
2021/10/06 04:37:38;;;;;;;12.13;2.10;;;11.70;92.60;;;;;;5111361;27;20123;-77
2021/10/06 04:40:07;;;;;;;11.73;1.67;;;11.70;92.50;;;;;;5111067;28;20368;-77
2021/10/06 04:42:34;;;;;;;12.45;1.90;;;11.70;92.50;;;;;;5111787;28;20028;-77
2021/10/06 04:45:00;;;;;;;15.85;2.15;;;11.70;92.50;;;;;;5112235;28;20024;-77
2021/10/06 04:47:28;;;;;;;9.63;2.00;;;11.70;92.40;;;;;;5110254;28;20028;-77
2021/10/06 04:49:54;;;;;;;9.70;1.70;;;11.70;92.40;;;;;;5112953;28;20027;-74
2021/10/06 04:52:23;;;;;;;8.10;1.50;;;11.70;92.40;;;;;;5112263;28;20023;-75
2021/10/06 04:54:52;;;;;;;10.05;1.38;;;11.70;92.50;;;;;;5111712;28;20024;-75
2021/10/06 04:57:18;;;;;;;14.57;1.70;;;11.70;92.40;;;;;;5113688;28;20023;-75
2021/10/06 04:59:44;;;;;;;12.27;2.03;;;11.70;92.20;;;;;;5094782;28;20070;-74
2021/10/06 05:02:10;;;;;;;8.90;1.70;;;11.70;92.20;;;;;;5111836;28;20112;-76
2021/10/06 05:04:36;;;;;;;9.23;1.60;;;11.70;92.20;;;;;;5110476;28;20495;-76
2021/10/06 05:07:03;;;;;;;9.57;1.40;;;11.70;92.20;;;;;;5110794;28;20024;-77
2021/10/06 05:09:29;;;;;;;8.23;1.40;;;11.70;92.00;;;;;;5110902;28;20164;-77
2021/10/06 05:11:55;;;;;;;8.32;1.95;;;11.70;92.10;;;;;;5111123;28;20028;-77
2021/10/06 05:14:23;;;;;;;11.23;2.03;;;11.70;92.20;;;;;;5094179;28;20031;-77
2021/10/06 05:16:52;;;;;;;8.35;1.83;;;11.70;92.20;;;;;;5111322;28;20023;-77
2021/10/06 05:19:19;;;;;;;17.38;1.45;;;11.70;92.30;;;;;;5094562;28;20031;-77
2021/10/06 05:21:45;;;;;;;10.63;1.77;;;11.70;92.40;;;;;;5112543;28;20031;-77
2021/10/06 05:24:14;;;;;;;13.20;1.95;;;11.70;92.40;;;;;;5094147;28;20035;-77
2021/10/06 05:26:40;;;;;;;;;;;11.70;92.60;;;;;;5112669;28;20110;-77
2021/10/06 05:29:06;;;;;;;12.13;2.13;;;11.70;92.50;;;;;;5064902;27;20082;-77
2021/10/06 05:31:32;;;;;;;12.48;2.00;;;11.60;92.60;;;;;;5029153;28;20541;-77
2021/10/06 05:33:59;;;;;;;14.75;2.33;;;11.60;92.90;;;;;;5027601;28;20470;-77
2021/10/06 05:36:25;;;;;;;11.77;1.85;;;11.60;93.00;;;;;;5010961;28;20060;-77
2021/10/06 05:38:54;;;;;;;14.52;1.77;;;11.60;93.40;;;;;;5011333;28;20021;-77
2021/10/06 05:41:21;;;;;;;11.95;2.05;;;11.60;93.20;;;;;;5027327;28;20391;-76
2021/10/06 05:43:48;;;;;;;10.55;2.45;;;11.60;93.20;;;;;;5044446;28;20675;-77
2021/10/06 05:46:14;;;;;;;11.55;2.33;;;11.50;93.30;;;;;;5027422;28;20449;-77
2021/10/06 05:48:43;;;;;;;9.50;1.95;;;11.50;93.40;;;;;;5027403;28;20038;-77
2021/10/06 05:51:09;;;;;;;11.45;1.98;;;11.50;93.50;;;;;;5010664;28;20033;-77
2021/10/06 05:53:36;;;;;;;17.02;2.05;;;11.50;93.60;;;;;;5027933;28;20136;-77
2021/10/06 05:56:02;;;;;;;13.05;2.00;;;11.50;93.70;;;;;;5011271;28;20366;-77
2021/10/06 05:58:29;;;;;;;12.88;1.88;;;11.50;93.70;;;;;;5011349;28;20029;-77
2021/10/06 06:00:55;;;;;;;8.85;1.92;;;11.50;93.70;;;;;;5031406;28;20101;-77
2021/10/06 06:03:22;;;;;;;11.82;2.08;;;11.50;93.80;;;;;;5015036;28;20033;-77
2021/10/06 06:05:49;;;;;;;8.43;1.85;;;11.40;93.80;;;;;;5014528;28;20489;-77
2021/10/06 06:08:18;;;;;;;12.38;2.35;;;11.40;93.90;;;;;;5030935;28;20033;-77
2021/10/06 06:10:44;;;;;;;;;;;11.40;93.90;;;;;;5032474;28;20022;-77
2021/10/06 06:13:10;;;;;;;11.43;2.00;;;11.40;94.00;;;;;;5030776;28;19912;-77
2021/10/06 06:15:37;;;;;;;11.70;2.75;;;11.40;94.10;;;;;;5014213;28;20029;-77
2021/10/06 06:18:06;;;;;;;10.82;2.10;;;11.30;94.10;;;;;;5030317;28;20117;-77
2021/10/06 06:20:32;;;;;;;12.55;2.30;;;11.40;94.00;;;;;;5031218;28;20039;-77
2021/10/06 06:22:59;;;;;;;9.30;1.77;;;11.40;94.00;;;;;;5014516;28;20090;-76
2021/10/06 06:25:25;;;;;;;16.90;2.10;;;11.40;94.00;;;;;;5032123;28;20041;-76
2021/10/06 06:27:52;;;;;;;12.77;2.30;;;11.40;94.10;;;;;;5035400;28;20089;-76
2021/10/06 06:30:19;;;;;;;7.32;1.90;;;11.30;94.10;;;;;;5097792;28;20046;-77
2021/10/06 06:32:46;;;;;;;8.48;1.98;;;11.40;94.20;;;;;;5098005;28;20032;-77
2021/10/06 06:35:14;;;;;;;9.98;2.33;;;11.40;94.20;;;;;;5114795;28;20114;-77
2021/10/06 06:37:43;;;;;;;14.35;2.00;;;11.40;94.20;;;;;;5114779;28;20498;-77
2021/10/06 06:40:10;;;;;;;11.60;2.30;;;11.40;94.20;;;;;;5097760;28;20072;-77
2021/10/06 06:42:36;;;;;;;7.65;1.92;;;11.40;94.10;;;;;;5097490;28;20034;-77
2021/10/06 06:45:03;;;;;;;9.13;1.88;;;11.40;94.20;;;;;;5115630;28;20024;-77
2021/10/06 06:47:32;;;;;;;12.05;2.25;;;11.40;94.10;;;;;;5114346;28;20031;-76
2021/10/06 06:50:01;;;;;;;14.85;2.53;;;11.40;94.00;;;;;;5115922;28;20032;-76
2021/10/06 06:52:27;;;;;;;11.65;2.17;;;11.40;94.20;;;;;;5114755;28;20024;-77
2021/10/06 06:54:52;;;;;;;21.48;2.30;;;11.50;94.30;;;;;;5116215;28;20084;-77
2021/10/06 06:57:18;;;;;;;12.35;2.00;;;11.40;94.20;;;;;;5116041;28;20571;-77
2021/10/06 06:59:45;;;;;;;7.25;1.85;;;11.50;94.20;;;;;;5113216;28;20024;-77
2021/10/06 07:02:13;;;;;;;13.23;1.92;;;11.50;94.20;;;;;;5095789;28;20031;-77
2021/10/06 07:04:40;;;;;;;13.87;2.17;;;11.50;94.20;;;;;;5112814;28;20033;-77
2021/10/06 07:07:06;;;;;;;11.82;2.30;;;11.50;94.20;;;;;;5112544;28;20038;-76
2021/10/06 07:09:36;;;;;;;10.20;2.00;;;11.50;94.20;;;;;;5113331;28;20023;-76
2021/10/06 07:12:01;;;;;;;9.18;1.70;;;11.50;94.30;;;;;;5112958;28;20023;-76
2021/10/06 07:14:28;;;;;;;17.58;2.53;;;11.60;94.30;;;;;;5113346;28;20399;-77
2021/10/06 07:16:54;;;;;;;8.77;2.25;;;11.50;94.30;;;;;;5113309;28;20027;-77
2021/10/06 07:19:24;;;;;;;10.48;2.00;;;11.50;94.30;;;;;;5113317;27;20023;-77
2021/10/06 07:21:49;;;;;;;8.38;1.98;;;11.60;94.30;;;;;;5112949;28;20027;-77
2021/10/06 07:24:16;;;;;;;13.73;2.47;;;11.50;94.20;;;;;;5114420;28;20118;-77
2021/10/06 07:26:44;;;;;;;9.32;1.73;;;11.50;94.20;;;;;;5113985;28;20096;-77
2021/10/06 07:29:11;;;;;;;7.97;2.13;;;11.50;94.20;;;;;;5064482;28;20049;-77
2021/10/06 07:31:37;;;;;;;12.13;3.15;;;11.60;94.30;;;;;;5051820;28;20028;-77
2021/10/06 07:34:03;;;;;;;12.10;2.20;;;11.60;94.30;;;;;;5033705;28;20052;-77
2021/10/06 07:36:30;;;;;;;9.20;2.10;;;11.60;94.30;;;;;;5032952;28;20199;-77
2021/10/06 07:38:59;;;;;;;10.65;1.92;;;11.60;94.40;;;;;;5050637;28;20100;-77
2021/10/06 07:41:25;;;;;;;;;;;11.60;94.40;;;;;;5016532;28;20491;-77
2021/10/06 07:43:51;;;;;;;9.85;2.30;;;11.60;94.30;;;;;;5051538;28;19905;-77
2021/10/06 07:46:18;;;;;;;9.18;2.13;;;11.60;94.30;;;;;;5050144;28;20036;-77
2021/10/06 07:48:44;;;;;;;10.02;2.05;;;11.60;94.30;;;;;;5033758;28;20033;-77
2021/10/06 07:51:10;;;;;;;11.60;2.15;;;11.60;94.40;;;;;;5017097;28;20564;-77
2021/10/06 07:53:37;;;;;;;14.02;2.85;;;11.60;94.40;;;;;;5017346;28;20029;-77
2021/10/06 07:56:04;;;;;;;10.27;2.83;;;11.60;94.40;;;;;;5016324;28;20033;-77
2021/10/06 07:58:30;;;;;;;11.10;2.25;;;11.60;94.40;;;;;;5032783;28;20021;-77
2021/10/06 08:01:00;;;;;;;10.60;2.20;;;11.60;94.40;;;;;;5032421;28;20116;-77
2021/10/06 08:03:27;;;;;;;12.23;2.25;;;11.60;94.40;;;;;;5016695;28;20088;-77
2021/10/06 08:05:53;;;;;;;11.15;2.40;;;11.60;94.40;;;;;;5050320;28;20024;-77
2021/10/06 08:08:19;;;;;;;8.32;2.25;;;11.60;94.50;;;;;;5050177;28;20052;-77
2021/10/06 08:10:46;;;;;;;9.80;2.28;;;11.60;94.40;;;;;;5016107;28;20037;-77
2021/10/06 08:13:13;;;;;;;8.93;2.03;;;11.60;94.50;;;;;;5032489;28;20029;-77
2021/10/06 08:15:45;;;;;;;7.03;1.73;;;11.60;94.60;;;;;;5032617;28;20040;-77
2021/10/06 08:18:10;;;;;;;7.20;2.03;;;11.70;94.60;;;;;;5032378;28;20045;-77
2021/10/06 08:20:36;;;;;;;6.90;2.00;;;11.70;94.50;;;;;;5032575;28;20033;-77
2021/10/06 08:23:04;;;;;;;6.82;2.05;;;11.70;94.40;;;;;;5050123;28;20033;-77
2021/10/06 08:25:30;;;;;;;8.52;1.88;;;11.80;94.40;;;;;;5033084;28;20048;-77
2021/10/06 08:27:57;;;;;;;10.95;1.88;;;11.80;94.50;;;;;;5016533;28;20045;-77
2021/10/06 08:30:24;;;;;;;5.63;1.63;;;11.80;94.40;;;;;;5033119;28;20021;-77
2021/10/06 08:32:53;;;;;;;9.38;1.98;;;11.80;94.40;;;;;;5033584;28;20052;-77
2021/10/06 08:35:19;;;;;;;6.57;1.77;;;11.80;94.30;;;;;;5050835;28;20056;-77
2021/10/06 08:37:45;;;;;;;12.50;2.03;;;11.80;94.50;;;;;;5049315;28;20508;-77
2021/10/06 08:40:12;;;;;;;10.20;2.08;;;11.90;94.50;;;;;;5032821;28;20033;-77
2021/10/06 08:42:40;;;;;;;9.05;2.10;;;11.90;94.40;;;;;;5032753;28;20116;-77
2021/10/06 08:45:07;;;;;;;8.32;1.90;;;12.00;94.40;;;;;;5050737;28;20020;-77
2021/10/06 08:47:39;;;;;;;7.70;2.00;;;12.00;94.30;;;;;;5015705;28;20085;-74
2021/10/06 08:50:07;;;;;;;7.28;1.77;;;11.90;94.30;;;;;;5049650;28;20705;-75
2021/10/06 08:52:32;;;;;;;8.98;1.92;;;11.90;94.40;;;;;;5049144;28;20037;-75
2021/10/06 08:55:00;;;;;;;10.57;1.75;;;11.90;94.40;;;;;;5049429;28;20039;-74
2021/10/06 08:57:25;;;;;;;9.25;2.30;;;11.90;94.40;;;;;;5049565;28;20440;-74
2021/10/06 08:59:51;;;;;;;6.78;2.08;;;11.90;94.50;;;;;;5031796;28;20111;-74
2021/10/06 09:02:18;;;;;;;4.85;1.83;;;11.90;94.70;;;;;;5015637;28;20388;-74
2021/10/06 09:04:47;;;;;;;5.45;2.08;;;12.00;94.80;;;;;;5032196;28;20104;-75
2021/10/06 09:07:13;;;;;;;8.95;1.85;;;11.90;94.60;;;;;;5031600;28;20075;-75
2021/10/06 09:09:39;;;;;;;7.82;2.20;;;12.00;94.60;;;;;;5049615;28;20021;-74
2021/10/06 09:12:15;;;;;;;6.50;1.85;;;12.00;94.60;;;;;;5031572;28;20040;-74
2021/10/06 09:14:46;;;;;;;8.15;2.15;;;12.00;94.60;;;;;;5049046;28;20377;-74
2021/10/06 09:17:18;;;;;;;5.95;1.98;;;12.10;94.50;;;;;;5031746;28;20412;-74
2021/10/06 09:19:46;;;;;;;5.60;2.30;;;12.10;94.60;;;;;;5031201;28;20029;-74
2021/10/06 09:22:20;;;;;;;7.75;2.38;;;12.10;94.60;;;;;;5031206;28;20025;-75
2021/10/06 09:24:54;;;;;;;9.43;2.45;;;12.10;94.60;;;;;;5049114;28;20036;-75
2021/10/06 09:27:27;;;;;;;5.75;2.15;;;12.20;94.70;;;;;;5031019;28;20025;-75
2021/10/06 09:29:56;;;;;;;8.43;2.00;;;12.20;94.60;;;;;;5031027;28;20054;-75
2021/10/06 09:32:30;;;;;;;10.40;1.73;;;12.20;94.60;;;;;;5049016;28;20017;-75
2021/10/06 09:35:12;;;;;;;3.45;1.58;;;12.20;94.70;;;;;;5030617;28;20029;-75
2021/10/06 09:37:44;;;;;;;5.32;1.70;;;12.20;94.60;;;;;;5049191;28;20639;-75
2021/10/06 09:40:13;;;;;;;5.25;1.88;;;12.20;94.70;;;;;;5048791;28;20354;-75
2021/10/06 09:42:42;;;;;;;6.72;1.88;;;12.30;94.70;;;;;;5048927;28;20048;-75
2021/10/06 09:45:08;;;;;;;9.85;1.50;;;12.30;94.60;;;;;;5049167;28;20029;-75
2021/10/06 09:47:35;;;;;;;7.18;1.83;;;12.40;94.60;;;;;;5031005;28;20511;-74
2021/10/06 09:50:02;;;;;;;4.35;1.08;;;12.40;94.50;;;;;;5014576;28;20617;-74
2021/10/06 09:52:31;;;;;;;4.82;1.60;;;12.50;94.50;;;;;;5030765;28;20029;-75
2021/10/06 09:55:07;;;;;;;2.55;1.23;;;12.50;94.30;;;;;;5048312;28;20073;-74
2021/10/06 09:57:38;;;;;;;5.15;1.73;;;12.50;94.40;;;;;;5048230;28;20033;-75
2021/10/06 10:00:09;;;;;;;4.68;1.38;;;12.50;94.40;;;;;;5049020;28;20017;-77
2021/10/06 10:02:36;;;;;;;2.92;1.38;;;12.60;94.60;;;;;;5031626;28;20074;-77
2021/10/06 10:05:04;;;;;;;4.05;1.33;;;12.70;94.40;;;;;;5049352;28;20029;-77
2021/10/06 10:07:31;;;;;;;5.97;1.42;;;12.80;94.20;;;;;;5049128;28;20033;-77
2021/10/06 10:09:57;;;;;;;2.67;1.30;;;12.80;94.10;;;;;;5015057;28;20025;-77
2021/10/06 10:12:25;;;;;;;2.33;1.13;;;12.80;94.00;;;;;;5049283;28;20078;-77
2021/10/06 10:14:51;;;;;;;4.40;1.50;;;12.80;94.00;;;;;;5031738;28;20064;-77
2021/10/06 10:17:18;;;;;;;3.30;1.52;;;12.80;94.00;;;;;;5031244;28;20271;-74
2021/10/06 10:19:46;;;;;;;3.00;1.20;;;12.80;93.90;;;;;;5030035;28;20033;-75
2021/10/06 10:22:13;;;;;;;2.58;1.10;;;12.80;93.90;;;;;;5048028;28;20103;-75
2021/10/06 10:24:47;;;;;;;4.22;1.55;;;12.70;93.80;;;;;;5047566;28;20108;-75
2021/10/06 10:27:16;;;;;;;3.97;1.45;;;12.70;93.90;;;;;;5013490;28;20037;-75
2021/10/06 10:29:47;;;;;;;1.77;1.20;;;12.70;93.90;;;;;;5029762;28;20060;-74
2021/10/06 10:32:14;;;;;;;3.08;1.30;;;12.70;94.00;;;;;;5047434;28;20029;-75
2021/10/06 10:35:04;;;;;;;3.17;1.30;;;12.70;93.90;;;;;;5047489;28;20133;-75
2021/10/06 10:37:46;;;;;;;2.97;1.35;;;12.60;93.90;;;;;;5047897;28;20026;-74
2021/10/06 10:40:34;;;;;;;2.30;1.50;;;12.60;93.90;;;;;;5030988;28;20032;-76
2021/10/06 10:43:28;;;;;;;2.00;1.57;;;12.60;94.00;;;;;;5031052;28;20029;-76
2021/10/06 10:46:00;;;;;;;2.50;1.40;;;12.60;94.10;;;;;;5031444;28;20025;-77
2021/10/06 10:48:31;;;;;;;4.40;1.50;;;12.70;94.20;;;;;;5033983;28;20032;-77
2021/10/06 10:50:56;;;;;;;3.42;2.33;;;12.70;94.20;;;;;;5052137;28;20056;-77
2021/10/06 10:53:51;;;;;;;4.85;2.08;;;12.70;94.20;;;;;;5052171;28;20434;-76
2021/10/06 10:56:43;;;;;;;4.25;1.63;;;12.70;94.40;;;;;;5034349;28;20072;-75
2021/10/06 10:59:17;;;;;;;5.15;1.85;;;12.80;94.30;;;;;;5051338;28;20082;-75
2021/10/06 11:02:07;;;;;;;3.08;1.80;;;12.80;94.20;;;;;;5050591;28;20123;-75
2021/10/06 11:04:36;;;;;;;4.38;2.13;;;12.80;94.00;;;;;;5049172;28;20029;-75
2021/10/06 11:07:12;;;;;;;;;;;12.80;94.10;;;;;;5033329;28;20480;-74
2021/10/06 11:10:00;;;;;;;2.85;1.92;;;12.80;94.10;;;;;;5051049;28;19909;-75
2021/10/06 11:12:28;;;;;;;3.75;1.73;;;12.80;94.10;;;;;;5050942;28;20041;-75
2021/10/06 11:15:17;;;;;;;2.70;1.60;;;12.80;94.00;;;;;;5033444;28;20025;-75
2021/10/06 11:18:02;;;;;;;;;;;12.80;93.90;;;;;;5051720;28;20117;-75
2021/10/06 11:20:45;;;;;;;2.85;1.60;;;12.80;93.90;;;;;;5033631;28;19996;-77
2021/10/06 11:23:42;;;;;;;3.65;2.17;;;12.80;94.00;;;;;;5033772;28;20033;-76
2021/10/06 11:26:13;;;;;;;3.17;1.80;;;12.80;94.10;;;;;;5055469;28;20485;-77
2021/10/06 11:28:43;;;;;;;4.78;1.90;;;12.90;94.00;;;;;;5051087;28;20078;-77
2021/10/06 11:31:11;;;;;;;2.40;2.20;;;12.90;94.00;;;;;;5034270;28;20022;-76
2021/10/06 11:33:37;;;;;;;3.72;2.08;;;13.00;94.00;;;;;;5051430;28;20029;-76
2021/10/06 11:36:19;;;;;;;2.97;2.05;;;13.10;94.00;;;;;;5051162;28;20548;-77
2021/10/06 11:38:51;;;;;;;3.83;1.73;;;13.20;93.90;;;;;;5032922;28;20032;-76
2021/10/06 11:41:17;;;;;;;4.90;1.65;;;13.30;94.00;;;;;;5033823;28;20048;-77
2021/10/06 11:43:48;;;;;;;2.05;1.83;;;13.40;93.50;;;;;;5051350;27;20040;-77
2021/10/06 11:46:17;;;;;;;3.10;1.65;;;13.40;93.50;;;;;;5051239;28;20032;-77
2021/10/06 11:48:46;;;;;;;;;;;13.50;93.50;;;;;;5033706;28;20078;-77
2021/10/06 11:51:12;;;;;;;;;;;13.60;93.30;;;;;;5066903;28;20432;-77
2021/10/06 11:53:50;;;;;;;3.15;1.40;;;13.70;93.10;;;;;;5016899;28;19912;-77
2021/10/06 11:56:27;;;;;;;3.35;1.65;;;13.80;92.80;;;;;;5050888;28;20040;-77
2021/10/06 11:58:53;;;;;;;5.60;1.90;;;13.80;92.80;;;;;;5016490;28;20077;-77
2021/10/06 12:01:20;;;;;;;2.40;1.67;;;13.80;92.80;;;;;;5032904;28;20035;-77
2021/10/06 12:03:46;;;;;;;4.90;1.90;;;13.80;92.90;;;;;;5016369;28;20029;-77
2021/10/06 12:06:13;;;;;;;5.78;1.70;;;13.90;92.80;;;;;;5032683;28;20682;-76
2021/10/06 12:08:39;;;;;;;2.45;1.50;;;13.90;92.60;;;;;;5050373;27;20396;-77
2021/10/06 12:11:07;;;;;;;7.40;2.00;;;13.90;92.40;;;;;;5050405;28;20031;-77
2021/10/06 12:13:41;;;;;;;4.77;1.97;;;13.90;92.50;;;;;;5032281;28;20029;-77
2021/10/06 12:16:20;;;;;;;5.25;1.90;;;13.90;92.60;;;;;;5032793;28;20116;-77
2021/10/06 12:19:01;;;;;;;6.53;2.38;;;13.90;92.40;;;;;;5050139;28;20100;-77
2021/10/06 12:21:28;;;;;;;3.22;2.13;;;13.90;92.50;;;;;;5049946;28;20025;-77
2021/10/06 12:23:57;;;;;;;4.47;2.30;;;13.90;92.70;;;;;;5050194;28;20033;-76
2021/10/06 12:26:30;;;;;;;2.83;2.45;;;13.80;92.70;;;;;;5050604;28;20472;-77
2021/10/06 12:28:58;;;;;;;6.97;2.63;;;13.80;92.80;;;;;;5032404;28;20113;-77
2021/10/06 12:31:28;;;;;;;5.00;2.43;;;13.80;92.90;;;;;;5032671;28;20032;-77
2021/10/06 12:34:06;;;;;;;7.07;2.83;;;13.80;92.80;;;;;;5032343;28;20055;-77
2021/10/06 12:36:32;;;;;;;7.10;2.33;;;13.80;93.00;;;;;;5015549;28;20021;-78
2021/10/06 12:38:58;;;;;;;4.32;2.13;;;13.80;93.00;;;;;;5049863;28;20104;-77
2021/10/06 12:41:35;;;;;;;9.32;2.60;;;13.70;93.10;;;;;;5049715;28;20445;-77
2021/10/06 12:44:01;;;;;;;6.60;2.60;;;13.70;93.20;;;;;;5031728;28;20386;-78
2021/10/06 12:46:26;;;;;;;4.60;2.88;;;13.70;93.30;;;;;;5031572;28;20077;-77
2021/10/06 12:48:56;;;;;;;8.15;3.40;;;13.70;93.30;;;;;;5031507;28;20044;-77
2021/10/06 12:51:30;;;;;;;5.40;2.78;;;13.70;93.40;;;;;;5015425;28;20066;-74